Kaltag, AK

2:46 PM AKST on February 28, 2015 (GMT -0900)
Kaltag | Change Station
CLOSE
Current Station
Airport
Location: Kaltag,
Elevation: 200 ft
Nearby Weather Stations
Active Advisory: Winter Weather Advisory Active Notice: Record Report

Elev 200 ft 64.32 °N, 158.74 °W | Updated 53 minutes ago

Scattered Clouds
Scattered Clouds
24 °F
Feels Like 11 °F
N
17
Wind Variable Wind from SW
Gusts 23 mph

Today
High -- | Low -- °F
--% Chance of Precip.
Yesterday
High -- | Low -- °F
Precip. -- in
8:46 AM 6:49 PM
Waxing Gibbous, 81% visible
Pressure 30.22 in
Visibility 10.0 miles
Clouds Scattered Clouds 3200 ft
Scattered Clouds 4000 ft
Windchill 11 °F
Dew Point 14 °F
Humidity 65%
Rainfall 0.00 in
Snow Depth Not available.
UV 1 out of 12
Pollen Not available.
Air Quality Not available.
Flu Activity Not available.
METAR PAKV 282253Z AUTO 23015G20KT 10SM SCT032 SCT040 M04/M10 A3020 RMK AO1 SLP233 T10441100 FZRANO TSNO

More Conditions Fewer Conditions

Pressure 30.22 in
Visibility 10.0 miles
Clouds Scattered Clouds 3200 ft
Scattered Clouds 4000 ft
Windchill 11 °F
Dew Point 14 °F
Humidity 65%
Rainfall 0.00 in
Snow Depth Not available.
UV 1 out of 12
Pollen Not available.
Air Quality Not available.
Flu Activity Not available.
METAR PAKV 282253Z AUTO 23015G20KT 10SM SCT032 SCT040 M04/M10 A3020 RMK AO1 SLP233 T10441100 FZRANO TSNO

More Conditions Fewer Conditions

10-Day Weather Forecast

Almanac

Astronomy

Feb. 28, 2015 Rise Set
Actual Time
Civil Twilight
Nautical Twilight
Astronomical Twilight
Moon
Length of Visible Light
Length of Day
Tomorrow will be .
, % of the Moon is Illuminated

Today's Extremes

State Highs State Lows

Community

WunderPhotos

Upload Photos

1,801,176 photos uploaded!

WunderBlogs® & News

Nearby

Air Quality

  Air Quality AQ Index Pollutant
Not available.

Snow Depth

Station Depth Elevation

Earthquake Activity

City Distance Mag. Time & Date
Minimum magnitude displayed is 2.5.

Coastal Water Temperatures

Place Temperature

Nearby Weather Stations

Winter Weather Advisory
Statement as of 12:42 PM AKST on February 28, 2015

... Winter Weather Advisory now in effect until 6 PM akst this
evening...

The Winter Weather Advisory for snow and blowing snow is now in
effect until 6 PM akst this evening.

* Blowing snow... reducing visibility to 1/2 mile or less.

* Snow... with up to 2 inches of additional accumulation.

* Winds... west gusting to 35 mph.

* Timing... snow and blowing snow will continue through this
afternoon. Conditions will improve by late afternoon as winds
and snow diminish.

* Impacts... visibility will be greatly reduced and snow will
accumulate into drifts. Whiteout conditions may occur. Travel
and outdoor activities will be difficult.

Precautionary/preparedness actions...

A Winter Weather Advisory means that one or more winter weather
hazards are expected to cause travel difficulties.